createdAt,value
2022-12-13T00:02:16.595Z,-2.60
2022-12-13T00:04:50.631Z,-2.70
2022-12-13T00:07:17.682Z,-2.70
2022-12-13T00:09:51.601Z,-2.70
2022-12-13T00:12:18.640Z,-2.70
2022-12-13T00:14:52.623Z,-2.80
2022-12-13T00:17:26.624Z,-2.80
2022-12-13T00:20:00.618Z,-2.80
2022-12-13T00:22:34.650Z,-2.80
2022-12-13T00:25:01.644Z,-2.80
2022-12-13T00:27:35.649Z,-2.80
2022-12-13T00:30:02.911Z,-2.90
2022-12-13T00:32:36.598Z,-2.90
2022-12-13T00:35:10.619Z,-2.90
2022-12-13T00:37:37.601Z,-2.90
2022-12-13T00:40:04.889Z,-2.90
2022-12-13T00:42:38.631Z,-2.80
2022-12-13T00:45:12.888Z,-2.70
2022-12-13T00:47:40.170Z,-2.70
2022-12-13T00:50:07.793Z,-2.80
2022-12-13T00:52:41.628Z,-2.80
2022-12-13T00:55:15.770Z,-2.90
2022-12-13T00:57:43.114Z,-2.90
2022-12-13T01:00:17.624Z,-3.00
2022-12-13T01:02:44.794Z,-3.00
2022-12-13T01:05:38.580Z,-3.00
2022-12-13T01:08:06.682Z,-3.10
2022-12-13T01:10:40.633Z,-3.10
2022-12-13T01:13:07.667Z,-3.00
2022-12-13T01:15:41.677Z,-2.90
2022-12-13T01:18:15.623Z,-2.90
2022-12-13T01:20:42.641Z,-2.90
2022-12-13T01:23:16.626Z,-2.90
2022-12-13T01:25:50.634Z,-3.00
2022-12-13T01:28:17.696Z,-3.00
2022-12-13T01:30:51.684Z,-3.10
2022-12-13T01:33:18.735Z,-3.10
2022-12-13T01:35:52.673Z,-3.10
2022-12-13T01:38:28.947Z,-3.20
2022-12-13T01:41:17.016Z,-3.20
2022-12-13T01:43:51.752Z,-3.20
2022-12-13T01:46:25.629Z,-3.30
2022-12-13T01:49:23.665Z,-3.30
2022-12-13T01:51:59.257Z,-3.20
2022-12-13T01:54:39.675Z,-3.30
2022-12-13T01:57:16.147Z,-3.30
2022-12-13T01:59:50.623Z,-3.40
2022-12-13T02:02:24.677Z,-3.40
2022-12-13T02:05:14.390Z,-3.50
2022-12-13T02:07:50.698Z,-3.50
2022-12-13T02:10:24.653Z,-3.50
2022-12-13T02:12:58.646Z,-3.50
2022-12-13T02:15:30.562Z,-3.60
2022-12-13T02:18:22.657Z,-3.60
2022-12-13T02:21:19.015Z,-3.60
2022-12-13T02:24:16.662Z,-3.70
2022-12-13T02:27:30.887Z,-3.70
2022-12-13T02:30:29.633Z,-3.70
2022-12-13T02:33:22.036Z,-3.70
2022-12-13T02:36:09.328Z,-3.80
2022-12-13T02:38:54.987Z,-3.80
2022-12-13T02:41:51.652Z,-3.80
2022-12-13T02:44:48.628Z,-3.80
2022-12-13T02:47:22.053Z,-3.80
2022-12-13T02:50:00.625Z,-3.80
2022-12-13T02:52:31.182Z,-3.80
2022-12-13T02:55:05.647Z,-3.80
2022-12-13T02:57:42.642Z,-3.80
2022-12-13T03:00:22.766Z,-3.80
2022-12-13T03:03:30.691Z,-3.90
2022-12-13T03:06:23.869Z,-3.90
2022-12-13T03:09:18.608Z,-3.80
2022-12-13T03:12:16.263Z,-3.90
2022-12-13T03:15:02.644Z,-3.80
2022-12-13T03:17:37.310Z,-3.70
2022-12-13T03:20:12.800Z,-3.60
2022-12-13T03:22:50.154Z,-3.50
2022-12-13T03:25:30.597Z,-3.40
2022-12-13T03:28:01.993Z,-3.30
2022-12-13T03:30:37.657Z,-3.20
2022-12-13T03:33:11.673Z,-3.10
2022-12-13T03:35:50.633Z,-3.00
2022-12-13T03:38:22.181Z,-3.00
2022-12-13T03:41:02.638Z,-2.90
2022-12-13T03:43:36.827Z,-2.80
2022-12-13T03:46:16.687Z,-2.80
2022-12-13T03:48:50.645Z,-2.70
2022-12-13T03:51:24.643Z,-2.70
2022-12-13T03:53:51.654Z,-2.70
2022-12-13T03:56:25.610Z,-2.60
2022-12-13T03:58:52.686Z,-2.60
2022-12-13T04:01:26.702Z,-2.60
2022-12-13T04:04:00.636Z,-2.50
2022-12-13T04:06:34.685Z,-2.50
2022-12-13T04:09:01.754Z,-2.50
2022-12-13T04:11:53.649Z,-2.50
2022-12-13T04:14:22.565Z,-2.50
2022-12-13T04:16:57.636Z,-2.40
2022-12-13T04:19:31.676Z,-2.40
2022-12-13T04:21:58.667Z,-2.40
2022-12-13T04:24:32.685Z,-2.40
2022-12-13T04:27:01.513Z,-2.40
2022-12-13T04:29:35.658Z,-2.40
2022-12-13T04:32:04.486Z,-2.40
2022-12-13T04:34:38.616Z,-2.40
2022-12-13T04:37:06.711Z,-2.40
2022-12-13T04:39:40.652Z,-2.40
2022-12-13T04:42:22.624Z,-2.40
2022-12-13T04:44:56.837Z,-2.40
2022-12-13T04:47:30.636Z,-2.40
2022-12-13T04:49:57.676Z,-2.30
2022-12-13T04:52:24.797Z,-2.40
2022-12-13T04:54:58.600Z,-2.40
2022-12-13T04:57:25.666Z,-2.40
2022-12-13T04:59:59.612Z,-2.40
2022-12-13T05:02:33.703Z,-2.40
2022-12-13T05:05:00.808Z,-2.40
2022-12-13T05:07:34.640Z,-2.40
2022-12-13T05:10:10.238Z,-2.40
2022-12-13T05:12:43.631Z,-2.40
2022-12-13T05:15:10.730Z,-2.40
2022-12-13T05:17:44.637Z,-2.40
2022-12-13T05:20:11.730Z,-2.40
2022-12-13T05:22:45.602Z,-2.50
2022-12-13T05:25:19.662Z,-2.50
2022-12-13T05:27:46.596Z,-2.60
2022-12-13T05:30:20.657Z,-2.70
2022-12-13T05:32:54.642Z,-2.70
2022-12-13T05:35:22.734Z,-2.70
2022-12-13T05:38:00.671Z,-2.80
2022-12-13T05:40:36.641Z,-2.80
2022-12-13T05:43:22.279Z,-2.70
2022-12-13T05:46:03.891Z,-2.70
2022-12-13T05:48:37.676Z,-2.80
2022-12-13T05:51:10.594Z,-2.80
2022-12-13T05:53:53.066Z,-2.80
2022-12-13T05:56:23.119Z,-2.90
2022-12-13T05:58:57.626Z,-2.90
2022-12-13T06:01:31.661Z,-2.90
2022-12-13T06:03:58.726Z,-2.90
2022-12-13T06:06:32.632Z,-2.90
2022-12-13T06:08:59.973Z,-2.90
2022-12-13T06:11:33.615Z,-3.00
2022-12-13T06:14:01.249Z,-3.00
2022-12-13T06:16:34.665Z,-3.00
2022-12-13T06:19:04.614Z,-3.00
2022-12-13T06:21:45.825Z,-3.00
2022-12-13T06:24:18.567Z,-3.00
2022-12-13T06:26:52.722Z,-3.00
2022-12-13T06:29:24.464Z,-3.00
2022-12-13T06:32:09.610Z,-3.00
2022-12-13T06:34:43.683Z,-3.00
2022-12-13T06:37:20.651Z,-2.90
2022-12-13T06:39:54.638Z,-2.90
2022-12-13T06:42:41.630Z,-2.90
2022-12-13T06:45:15.623Z,-2.90
2022-12-13T06:47:42.621Z,-2.90
2022-12-13T06:50:16.634Z,-2.90
2022-12-13T06:52:45.861Z,-2.80
2022-12-13T06:55:23.997Z,-2.80
2022-12-13T06:57:51.923Z,-2.80
2022-12-13T07:00:35.576Z,-2.80
2022-12-13T07:03:04.263Z,-2.80
2022-12-13T07:05:37.686Z,-2.80
2022-12-13T07:08:10.377Z,-2.80
2022-12-13T07:10:46.631Z,-2.80
2022-12-13T07:13:17.304Z,-2.80
2022-12-13T07:15:52.664Z,-2.80
2022-12-13T07:18:28.400Z,-2.80
2022-12-13T07:21:01.684Z,-2.90
2022-12-13T07:23:28.687Z,-2.90
2022-12-13T07:26:02.656Z,-2.90
2022-12-13T07:28:33.248Z,-3.00
2022-12-13T07:31:12.652Z,-3.00
2022-12-13T07:33:40.725Z,-3.00
2022-12-13T07:36:26.884Z,-3.00
2022-12-13T07:38:55.864Z,-3.00
2022-12-13T07:41:30.700Z,-3.00
2022-12-13T07:44:03.928Z,-3.00
2022-12-13T07:46:37.686Z,-3.00
2022-12-13T07:49:05.632Z,-2.90
2022-12-13T07:51:42.865Z,-2.90
2022-12-13T07:54:09.921Z,-2.90
2022-12-13T07:56:43.705Z,-2.80
2022-12-13T07:59:11.086Z,-2.80
2022-12-13T08:01:44.661Z,-2.80
2022-12-13T08:04:11.700Z,-2.80
2022-12-13T08:06:45.632Z,-2.80
2022-12-13T08:09:12.624Z,-2.70
2022-12-13T08:11:46.659Z,-2.70
2022-12-13T08:14:13.594Z,-2.70
2022-12-13T08:16:47.691Z,-2.60
2022-12-13T08:19:14.743Z,-2.60
2022-12-13T08:21:57.742Z,-2.60
2022-12-13T08:24:27.283Z,-2.60
2022-12-13T08:27:01.898Z,-2.50
2022-12-13T08:29:35.311Z,-2.40
2022-12-13T08:32:15.671Z,-2.00
2022-12-13T08:34:42.812Z,-1.40
2022-12-13T08:37:16.739Z,-0.70
2022-12-13T08:39:44.784Z,0.10
2022-12-13T08:42:23.684Z,1.00
2022-12-13T08:44:58.788Z,1.80
2022-12-13T08:47:39.872Z,2.70
2022-12-13T08:50:09.167Z,3.50
2022-12-13T08:52:43.659Z,4.20
2022-12-13T08:55:12.632Z,4.90
2022-12-13T08:57:47.676Z,5.50
2022-12-13T09:00:22.634Z,6.00
2022-12-13T09:02:57.678Z,6.50
2022-12-13T09:05:33.637Z,6.90
2022-12-13T09:08:24.695Z,7.40
2022-12-13T09:11:11.180Z,7.70
2022-12-13T09:13:48.043Z,8.10
2022-12-13T09:16:26.782Z,8.40
2022-12-13T09:18:55.842Z,8.60
2022-12-13T09:21:31.028Z,8.80
2022-12-13T09:24:01.329Z,9.00
2022-12-13T09:26:38.359Z,9.10
2022-12-13T09:29:11.106Z,9.20
2022-12-13T09:31:52.638Z,9.20
2022-12-13T09:34:26.704Z,9.20
2022-12-13T09:37:23.055Z,9.30
2022-12-13T09:40:15.762Z,9.30
2022-12-13T09:43:12.429Z,9.20
2022-12-13T09:45:45.598Z,9.10
2022-12-13T09:48:24.873Z,9.10
2022-12-13T09:51:16.571Z,9.10
2022-12-13T09:53:47.662Z,8.80
2022-12-13T09:56:30.688Z,8.50
2022-12-13T09:58:57.897Z,8.30
2022-12-13T10:01:31.802Z,8.20
2022-12-13T10:04:00.376Z,8.20
2022-12-13T10:06:39.647Z,8.20
2022-12-13T10:09:12.866Z,8.10
2022-12-13T10:11:58.701Z,8.00
2022-12-13T10:14:41.704Z,7.90
2022-12-13T10:17:21.667Z,7.80
2022-12-13T10:19:59.658Z,7.70
2022-12-13T10:22:26.779Z,7.50
2022-12-13T10:25:10.683Z,7.40
2022-12-13T10:27:47.581Z,7.30
2022-12-13T10:30:32.039Z,7.10
2022-12-13T10:33:02.794Z,6.80
2022-12-13T10:35:42.662Z,6.40
2022-12-13T10:38:12.263Z,6.00
2022-12-13T10:40:52.706Z,5.60
2022-12-13T10:43:42.701Z,5.30
2022-12-13T10:46:26.721Z,4.90
2022-12-13T10:48:53.816Z,4.50
2022-12-13T10:51:29.678Z,4.20
2022-12-13T10:54:00.523Z,3.80
2022-12-13T10:56:48.641Z,3.40
2022-12-13T10:59:20.945Z,3.10
2022-12-13T11:01:54.718Z,2.90
2022-12-13T11:04:29.838Z,2.90
2022-12-13T11:07:05.772Z,2.80
2022-12-13T11:09:39.135Z,2.80
2022-12-13T11:12:26.648Z,2.70
2022-12-13T11:15:00.836Z,2.70
2022-12-13T11:17:37.654Z,2.70
2022-12-13T11:20:16.173Z,2.60
2022-12-13T11:22:50.717Z,2.60
2022-12-13T11:25:24.257Z,2.50
2022-12-13T11:28:26.444Z,2.40
2022-12-13T11:31:29.776Z,2.40
2022-12-13T11:34:21.463Z,2.40
2022-12-13T11:37:17.683Z,2.40
2022-12-13T11:40:11.254Z,2.50
2022-12-13T11:43:01.693Z,2.50
2022-12-13T11:45:43.797Z,2.50
2022-12-13T11:48:24.024Z,2.50
2022-12-13T11:50:53.876Z,2.40
2022-12-13T11:53:36.716Z,2.40
2022-12-13T11:56:19.866Z,2.40
2022-12-13T11:59:24.071Z,2.40
2022-12-13T12:01:55.845Z,2.40
2022-12-13T12:05:05.696Z,2.40
2022-12-13T12:07:58.451Z,2.50
2022-12-13T12:10:50.143Z,2.50
2022-12-13T12:13:30.656Z,2.50
2022-12-13T12:16:31.726Z,2.50
2022-12-13T12:19:06.016Z,2.50
2022-12-13T12:22:12.220Z,2.50
2022-12-13T12:24:53.710Z,2.60
2022-12-13T12:27:22.608Z,2.60
2022-12-13T12:30:30.753Z,2.60
2022-12-13T12:33:14.716Z,2.60
2022-12-13T12:35:52.223Z,2.60
2022-12-13T12:38:44.763Z,2.60
2022-12-13T12:41:45.575Z,2.50
2022-12-13T12:44:30.540Z,2.50
2022-12-13T12:50:37.854Z,2.50
2022-12-13T12:53:43.712Z,2.50
2022-12-13T12:56:48.688Z,2.50
2022-12-13T12:59:41.679Z,2.50
2022-12-13T13:02:25.795Z,2.40
2022-12-13T13:05:06.843Z,2.50
2022-12-13T13:07:51.433Z,2.40
2022-12-13T13:10:27.469Z,2.40
2022-12-13T13:13:11.358Z,2.30
2022-12-13T13:15:45.756Z,2.30
2022-12-13T13:18:55.710Z,2.30
2022-12-13T13:21:38.723Z,2.20
2022-12-13T13:24:08.836Z,2.20
2022-12-13T13:26:51.712Z,2.20
2022-12-13T13:29:27.640Z,2.20
2022-12-13T13:32:29.677Z,2.10
2022-12-13T13:35:44.713Z,2.10
2022-12-13T13:38:23.243Z,2.10
2022-12-13T13:40:57.712Z,2.10
2022-12-13T13:43:38.178Z,2.10
2022-12-13T13:46:18.739Z,2.10
2022-12-13T13:49:18.804Z,2.00
2022-12-13T13:52:26.622Z,2.00
2022-12-13T13:55:41.704Z,1.90
2022-12-13T13:58:34.472Z,1.80
2022-12-13T14:01:17.822Z,1.70
2022-12-13T14:04:18.732Z,1.70
2022-12-13T14:07:30.873Z,1.60
2022-12-13T14:10:22.714Z,1.50
2022-12-13T14:13:44.460Z,1.50
2022-12-13T14:16:33.775Z,1.40
2022-12-13T14:19:18.974Z,1.40
2022-12-13T14:22:34.823Z,1.30
2022-12-13T14:25:26.632Z,1.20
2022-12-13T14:28:29.367Z,1.20
2022-12-13T14:30:57.360Z,1.20
2022-12-13T14:33:32.724Z,1.20
2022-12-13T14:36:02.143Z,1.20
2022-12-13T14:38:37.722Z,1.20
2022-12-13T14:41:06.315Z,1.20
2022-12-13T14:43:46.971Z,1.20
2022-12-13T14:46:23.922Z,1.20
2022-12-13T14:49:07.528Z,1.20
2022-12-13T14:51:37.978Z,1.20
2022-12-13T14:54:14.755Z,1.20
2022-12-13T14:57:02.756Z,1.20
2022-12-13T14:59:30.663Z,1.20
2022-12-13T15:02:09.744Z,1.10
2022-12-13T15:04:38.045Z,1.10
2022-12-13T15:07:14.724Z,1.10
2022-12-13T15:09:44.354Z,1.00
2022-12-13T15:12:25.804Z,1.00
2022-12-13T15:15:00.893Z,1.00
2022-12-13T15:17:43.685Z,0.90
2022-12-13T15:20:30.481Z,0.80
2022-12-13T15:23:32.739Z,0.80
2022-12-13T15:26:03.716Z,0.80
2022-12-13T15:28:41.726Z,0.80
2022-12-13T15:31:09.877Z,0.80
2022-12-13T15:33:48.572Z,0.80
2022-12-13T15:36:28.191Z,0.70
2022-12-13T15:39:01.685Z,0.70
2022-12-13T15:41:44.868Z,0.60
2022-12-13T15:44:35.735Z,0.60
2022-12-13T15:47:28.365Z,0.60
2022-12-13T15:50:11.734Z,0.60
2022-12-13T15:52:40.856Z,0.60
2022-12-13T15:55:19.649Z,0.60
2022-12-13T15:57:58.739Z,0.60
2022-12-13T16:00:35.704Z,0.60
2022-12-13T16:03:19.742Z,0.60
2022-12-13T16:05:57.317Z,0.70
2022-12-13T16:08:44.775Z,0.70
2022-12-13T16:11:12.135Z,0.70
2022-12-13T16:13:47.607Z,0.60
2022-12-13T16:16:34.837Z,0.60
2022-12-13T16:19:01.886Z,0.40
2022-12-13T16:21:36.704Z,0.30
2022-12-13T16:24:03.810Z,0.30
2022-12-13T16:26:39.568Z,0.20
2022-12-13T16:29:11.997Z,0.20
2022-12-13T16:31:45.767Z,0.20
2022-12-13T16:34:13.991Z,0.10
2022-12-13T16:36:50.727Z,0.10
2022-12-13T16:39:17.788Z,0.10
2022-12-13T16:41:53.747Z,0.00
2022-12-13T16:44:41.726Z,0.00
2022-12-13T16:47:24.684Z,-0.10
2022-12-13T16:50:00.730Z,-0.10
2022-12-13T16:52:34.699Z,-0.10
2022-12-13T16:55:01.757Z,-0.20
2022-12-13T16:57:35.704Z,-0.20
2022-12-13T17:00:03.383Z,-0.30
2022-12-13T17:02:36.794Z,-0.30
2022-12-13T17:05:05.305Z,-0.30
2022-12-13T17:07:38.746Z,-0.30
2022-12-13T17:10:13.715Z,-0.30
2022-12-13T17:12:40.657Z,-0.30
2022-12-13T17:15:15.786Z,-0.30
2022-12-13T17:17:46.827Z,-0.40
2022-12-13T17:20:24.739Z,-0.40
2022-12-13T17:22:52.388Z,-0.40
2022-12-13T17:25:25.707Z,-0.40
2022-12-13T17:27:52.725Z,-0.40
2022-12-13T17:30:26.793Z,-0.50
2022-12-13T17:33:00.729Z,-0.50
2022-12-13T17:35:34.725Z,-0.50
2022-12-13T17:38:01.733Z,-0.50
2022-12-13T17:40:28.726Z,-0.50
2022-12-13T17:43:02.696Z,-0.50
2022-12-13T17:45:35.869Z,-0.50
2022-12-13T17:48:09.697Z,-0.50
2022-12-13T17:50:46.689Z,-0.50
2022-12-13T17:53:13.673Z,-0.60
2022-12-13T17:55:47.695Z,-0.60
2022-12-13T17:58:21.705Z,-0.60
2022-12-13T18:00:48.864Z,-0.60
2022-12-13T18:03:22.929Z,-0.60
2022-12-13T18:06:00.286Z,-0.60
2022-12-13T18:08:34.674Z,-0.70
2022-12-13T18:11:31.248Z,-0.70
2022-12-13T18:13:55.827Z,-0.70
2022-12-13T18:16:32.102Z,-0.70
2022-12-13T18:19:09.727Z,-0.70
2022-12-13T18:21:37.554Z,-0.80
2022-12-13T18:24:16.723Z,-0.80
2022-12-13T18:26:50.734Z,-0.90
2022-12-13T18:29:24.713Z,-0.90
2022-12-13T18:31:58.768Z,-0.90
2022-12-13T18:34:32.793Z,-1.00
2022-12-13T18:37:06.815Z,-1.00
2022-12-13T18:39:35.134Z,-1.00
2022-12-13T18:42:08.863Z,-1.00
2022-12-13T18:44:42.842Z,-1.00
2022-12-13T18:47:34.775Z,-1.00
2022-12-13T18:50:08.803Z,-1.00
2022-12-13T18:52:35.839Z,-1.10
2022-12-13T18:55:09.825Z,-1.10
2022-12-13T18:57:36.829Z,-1.10
2022-12-13T19:00:11.753Z,-1.10
2022-12-13T19:02:39.152Z,-1.10
2022-12-13T19:05:12.855Z,-1.10
2022-12-13T19:07:46.798Z,-1.10
2022-12-13T19:10:20.778Z,-1.10
2022-12-13T19:12:54.853Z,-1.00
2022-12-13T19:15:21.983Z,-1.00
2022-12-13T19:17:49.113Z,-1.00
2022-12-13T19:20:23.838Z,-1.00
2022-12-13T19:22:50.914Z,-1.00
2022-12-13T19:25:25.003Z,-1.00
2022-12-13T19:27:56.801Z,-1.00
2022-12-13T19:30:31.098Z,-1.10
2022-12-13T19:33:04.732Z,-1.10
2022-12-13T19:35:38.920Z,-1.10
2022-12-13T19:38:05.964Z,-1.10
2022-12-13T19:40:47.724Z,-1.10
2022-12-13T19:43:26.764Z,-1.00
2022-12-13T19:46:11.873Z,-1.10
2022-12-13T19:48:45.731Z,-1.00
2022-12-13T19:51:12.674Z,-1.00
2022-12-13T19:53:40.086Z,-1.00
2022-12-13T19:56:18.818Z,-1.10
2022-12-13T19:58:53.838Z,-1.10
2022-12-13T20:01:21.336Z,-1.10
2022-12-13T20:03:54.760Z,-1.20
2022-12-13T20:06:23.429Z,-1.20
2022-12-13T20:08:58.074Z,-1.20
2022-12-13T20:11:32.780Z,-1.20
2022-12-13T20:13:59.818Z,-1.20
2022-12-13T20:16:34.815Z,-1.20
2022-12-13T20:19:03.057Z,-1.20
2022-12-13T20:21:36.915Z,-1.10
2022-12-13T20:24:04.218Z,-1.10
2022-12-13T20:26:38.804Z,-1.10
2022-12-13T20:29:12.752Z,-1.10
2022-12-13T20:31:48.300Z,-1.20
2022-12-13T20:34:16.420Z,-1.20
2022-12-13T20:36:50.747Z,-1.20
2022-12-13T20:39:17.779Z,-1.30
2022-12-13T20:41:44.825Z,-1.30
2022-12-13T20:44:19.794Z,-1.30
2022-12-13T20:46:53.917Z,-1.40
2022-12-13T20:49:27.738Z,-1.40
2022-12-13T20:51:54.694Z,-1.40
2022-12-13T20:54:28.766Z,-1.30
2022-12-13T20:57:02.754Z,-1.20
2022-12-13T20:59:29.729Z,-1.20
2022-12-13T21:02:03.851Z,-1.20
2022-12-13T21:04:31.128Z,-1.30
2022-12-13T21:07:04.819Z,-1.40
2022-12-13T21:09:31.943Z,-1.40
2022-12-13T21:12:05.903Z,-1.40
2022-12-13T21:14:33.893Z,-1.50
2022-12-13T21:17:08.959Z,-1.50
2022-12-13T21:19:43.999Z,-1.60
2022-12-13T21:22:22.939Z,-1.60
2022-12-13T21:24:49.979Z,-1.70
2022-12-13T21:27:23.769Z,-1.70
2022-12-13T21:29:57.721Z,-1.70
2022-12-13T21:32:24.672Z,-1.70
2022-12-13T21:34:57.776Z,-1.80
2022-12-13T21:37:25.947Z,-1.80
2022-12-13T21:39:59.771Z,-1.80
2022-12-13T21:42:26.762Z,-1.80
2022-12-13T21:45:06.811Z,-1.80
2022-12-13T21:47:40.584Z,-1.80
2022-12-13T21:50:15.826Z,-1.80
2022-12-13T21:52:47.975Z,-1.80
2022-12-13T21:55:38.836Z,-1.90
2022-12-13T21:58:27.954Z,-1.90
2022-12-13T22:01:02.009Z,-1.90
2022-12-13T22:03:29.193Z,-1.90
2022-12-13T22:06:07.440Z,-1.90
2022-12-13T22:08:39.376Z,-1.90
2022-12-13T22:11:24.763Z,-1.90
2022-12-13T22:13:57.982Z,-1.90
2022-12-13T22:16:39.931Z,-1.90
2022-12-13T22:19:14.878Z,-1.90
2022-12-13T22:21:52.980Z,-1.90
2022-12-13T22:24:24.985Z,-1.90
2022-12-13T22:27:01.688Z,-1.90
2022-12-13T22:29:32.255Z,-1.90
2022-12-13T22:32:07.912Z,-2.00
2022-12-13T22:34:38.939Z,-1.90
2022-12-13T22:37:14.996Z,-1.90
2022-12-13T22:39:50.664Z,-1.90
2022-12-13T22:42:17.760Z,-1.90
2022-12-13T22:44:51.793Z,-2.00
2022-12-13T22:47:24.967Z,-2.00
2022-12-13T22:49:58.792Z,-2.00
2022-12-13T22:52:30.456Z,-1.90
2022-12-13T22:55:07.814Z,-1.90
2022-12-13T22:57:34.933Z,-1.90
2022-12-13T23:00:08.873Z,-1.80
2022-12-13T23:02:38.818Z,-1.80
2022-12-13T23:05:12.750Z,-1.80
2022-12-13T23:07:39.770Z,-1.80
2022-12-13T23:10:33.801Z,-1.80
2022-12-13T23:13:03.735Z,-1.80
2022-12-13T23:15:37.746Z,-1.70
2022-12-13T23:18:04.833Z,-1.70
2022-12-13T23:20:40.841Z,-1.60
2022-12-13T23:23:14.776Z,-1.60
2022-12-13T23:25:41.771Z,-1.60
2022-12-13T23:28:15.761Z,-1.60
2022-12-13T23:30:43.018Z,-1.60
2022-12-13T23:33:16.780Z,-1.60
2022-12-13T23:35:43.872Z,-1.60
2022-12-13T23:38:17.920Z,-1.60
2022-12-13T23:40:45.095Z,-1.60
2022-12-13T23:43:18.810Z,-1.60
2022-12-13T23:46:05.824Z,-1.60
2022-12-13T23:48:36.138Z,-1.50
2022-12-13T23:51:11.781Z,-1.50
2022-12-13T23:53:48.205Z,-1.50
2022-12-13T23:56:17.030Z,-1.50
2022-12-13T23:58:52.744Z,-1.50
